Severnoe, Russia
Current Conditions -  °F | °C
As of 7:00 PM on Sunday 23 Nov 2014 (Local Time) from UNNT Reporting Station
Blowing Snow Blowing Snow  
Wind Chill: 16°   Ceiling: 3300
Heat Index: 28°   Visibility: 2.9mi
Dew Point: 25°   Wind: 18mph
Humidity: 86%   Direction: 210°SSW
Pressure: 29.56"   Gusts: 29mph
Location:  56.35°N, 78.35°E
Report Text: UNNT 231200Z 21008G13MPS 4700 -SHSN DRSN SCT010 BKN033CB OVC100M02/M04 Q1001 25490140 16390140 NOSIG RMK QFE740/0987
Loading
Personal Weather Stations






























Interactive Weather Map New forecast layout! Learn more

10-Day Weather Forecast

Advertisements
Track Severe Weather on mobile